WXM80 ListenWXM80 Stop

You find our weather info also at:

UK Metoffice

WeatherCloud

Weather Underground

Northeastern Weather Network

AWEKAS

Citizen Weather Observer Program (CWOP)

HAMweather, WeatherForYou, PWS Weather


Weather Underground History page Text

Daily Summary for June 2, 2017 Units:  Metric    English   Both
« Previous Day
Next Day »
Daily Weekly Monthly Yearly Custom
  High: Low: Average:
Temperature: 26.3 °C 11.2 °C 18.8 °C
Dew Point: 15.6 °C 8.8 °C 10.9 °C
Humidity: 89 % 40 % 62 %
Wind Speed: 11.4 km/h 0 km/h 2.1 km/h
Wind Gust: 22.5 km/h - -
Wind:- - SW
Pressure: 1014.1 hPa 1010 hPa -
Precipitation: 0 mm    
Historical Graphs
 
 
Tabular Data for June 2, 2017
Time Temperature Dew Point Pressure Wind Wind Speed Wind Gust Humidity Rainfall Rate (Hourly)
00:04 17.3 °C 10.4 °C 1011.7 hPa WSW 1 km/h 5.6 km/h 64 % 0 mm
00:09 17.3 °C 10.2 °C 1011.7 hPa SW 0.2 km/h 5.6 km/h 63 % 0 mm
00:14 17.3 °C 10.2 °C 1011.7 hPa WSW 2.4 km/h 5.6 km/h 63 % 0 mm
00:19 17.4 °C 10.3 °C 1011.7 hPa Calm   1.9 km/h 63 % 0 mm
00:24 17.4 °C 10.3 °C 1011.7 hPa SW 1.6 km/h 3.7 km/h 63 % 0 mm
00:29 17.4 °C 9.8 °C 1011.7 hPa WNW 1.6 km/h 3.7 km/h 61 % 0 mm
00:35 17.4 °C 9.8 °C 1012.1 hPa WNW 3.2 km/h 7.4 km/h 61 % 0 mm
00:40 17.6 °C 11.1 °C 1012.4 hPa WNW 6.8 km/h 16.7 km/h 66 % 0 mm
00:45 17.8 °C 12.2 °C 1012.8 hPa WNW 11.4 km/h 18.5 km/h 70 % 0 mm
00:50 17.9 °C 12.3 °C 1012.8 hPa NNE 1.9 km/h 9.3 km/h 70 % 0 mm
00:55 17.8 °C 12.5 °C 1012.8 hPa NNE 4.2 km/h 9.3 km/h 71 % 0 mm
01:00 17.8 °C 12.4 °C 1012.8 hPa NW 3.4 km/h 6.4 km/h 71 % 0 mm
01:05 17.6 °C 12.1 °C 1012.8 hPa NNE 1.1 km/h 7.4 km/h 70 % 0 mm
01:10 17.5 °C 11.7 °C 1013.1 hPa North 5.1 km/h 11.3 km/h 69 % 0 mm
01:15 17.3 °C 11.6 °C 1013.1 hPa North 3.7 km/h 9.3 km/h 69 % 0 mm
01:20 17.1 °C 11.2 °C 1013.1 hPa NNE 5.6 km/h 11.1 km/h 68 % 0 mm
01:25 16.9 °C 11.4 °C 1013.1 hPa NE 0.8 km/h 4.8 km/h 70 % 0 mm
01:30 16.8 °C 11.3 °C 1013.1 hPa NE 1.4 km/h 7.4 km/h 70 % 0 mm
01:35 16.7 °C 11.4 °C 1013.1 hPa NNW 1.8 km/h 3.7 km/h 71 % 0 mm
01:40 16.6 °C 11.1 °C 1013.1 hPa Calm     70 % 0 mm
01:45 16.6 °C 11.1 °C 1013.4 hPa Calm   1.9 km/h 70 % 0 mm
01:50 16.5 °C 11 °C 1013.4 hPa Calm     70 % 0 mm
01:55 16.4 °C 10.7 °C 1013.4 hPa Calm   1.9 km/h 69 % 0 mm
02:00 16.3 °C 10.6 °C 1013.1 hPa Calm     69 % 0 mm
02:05 16.2 °C 10.7 °C 1013.1 hPa NE 0.5 km/h 3.7 km/h 70 % 0 mm
02:10 16.1 °C 10.6 °C 1013.1 hPa NE 0.2 km/h   70 % 0 mm
02:15 16 °C 10.6 °C 1013.1 hPa Calm     70 % 0 mm
02:21 15.9 °C 10.7 °C 1013.4 hPa Calm     71 % 0 mm
02:25 15.8 °C 10.6 °C 1013.4 hPa Calm     71 % 0 mm
02:31 15.7 °C 10.6 °C 1013.4 hPa Calm     72 % 0 mm
02:36 15.6 °C 10.5 °C 1013.4 hPa Calm   1.6 km/h 72 % 0 mm
02:41 15.4 °C 10.6 °C 1013.4 hPa Calm     73 % 0 mm
02:46 15.2 °C 10.6 °C 1013.4 hPa Calm   1.6 km/h 74 % 0 mm
02:51 15.1 °C 10.4 °C 1013.4 hPa Calm     74 % 0 mm
02:56 14.9 °C 10.3 °C 1013.4 hPa Calm     74 % 0 mm
03:01 14.7 °C 9.9 °C 1013.4 hPa Calm     73 % 0 mm
03:06 14.6 °C 9.8 °C 1013.4 hPa NE 0.2 km/h 3.7 km/h 73 % 0 mm
03:11 14.4 °C 9.7 °C 1013.4 hPa NNW 1.4 km/h 5.6 km/h 73 % 0 mm
03:16 14.3 °C 9.6 °C 1013.4 hPa Calm   3.7 km/h 73 % 0 mm
03:21 14.2 °C 9.2 °C 1013.4 hPa North 2.3 km/h 3.7 km/h 72 % 0 mm
03:26 14.1 °C 9.1 °C 1013.4 hPa Calm   1.9 km/h 72 % 0 mm
03:31 14.1 °C 9.3 °C 1013.4 hPa NNE 1.9 km/h 5.6 km/h 73 % 0 mm
03:36 13.9 °C 9.2 °C 1013.4 hPa NNE 0.3 km/h 3.7 km/h 73 % 0 mm
03:41 13.9 °C 9.1 °C 1013.8 hPa Calm     73 % 0 mm
03:46 13.8 °C 9.1 °C 1013.8 hPa Calm     73 % 0 mm
03:51 13.8 °C 9.2 °C 1013.8 hPa Calm     74 % 0 mm
03:56 13.7 °C 9.2 °C 1013.8 hPa Calm     74 % 0 mm
04:01 13.7 °C 9.1 °C 1013.8 hPa NNE 1.1 km/h 3.2 km/h 74 % 0 mm
04:06 13.6 °C 9.2 °C 1013.8 hPa NNE 1.1 km/h 3.7 km/h 75 % 0 mm
04:11 13.5 °C 9.2 °C 1013.8 hPa NNE 0.2 km/h 1.9 km/h 75 % 0 mm
04:16 13.4 °C 9.1 °C 1013.8 hPa Calm   3.7 km/h 75 % 0 mm
04:21 13.3 °C 9.2 °C 1013.8 hPa Calm     76 % 0 mm
04:26 13.3 °C 9.1 °C 1013.8 hPa Calm     76 % 0 mm
04:31 13.2 °C 9.2 °C 1013.8 hPa NNE 0.2 km/h 1.9 km/h 77 % 0 mm
04:36 13.1 °C 9.2 °C 1013.8 hPa Calm     77 % 0 mm
04:41 13 °C 9.3 °C 1013.8 hPa Calm     78 % 0 mm
04:46 12.9 °C 9.4 °C 1013.8 hPa Calm     79 % 0 mm
04:51 12.8 °C 9.3 °C 1013.8 hPa Calm     79 % 0 mm
04:56 12.8 °C 9.4 °C 1013.8 hPa Calm     80 % 0 mm
05:01 12.7 °C 9.1 °C 1013.8 hPa Calm     79 % 0 mm
05:06 12.6 °C 9.2 °C 1013.8 hPa Calm     80 % 0 mm
05:11 12.4 °C 9.1 °C 1013.8 hPa Calm     80 % 0 mm
05:16 12.3 °C 9.2 °C 1013.8 hPa Calm     81 % 0 mm
05:21 12.2 °C 9.2 °C 1013.8 hPa Calm     82 % 0 mm
05:26 12.1 °C 9.1 °C 1013.8 hPa Calm     82 % 0 mm
05:31 11.9 °C 8.9 °C 1013.8 hPa Calm     82 % 0 mm
05:37 11.8 °C 9.1 °C 1014.1 hPa Calm     83 % 0 mm
05:42 11.7 °C 8.9 °C 1014.1 hPa Calm     83 % 0 mm
05:47 11.6 °C 9 °C 1014.1 hPa Calm     84 % 0 mm
05:51 11.6 °C 8.9 °C 1014.1 hPa Calm     84 % 0 mm
05:56 11.4 °C 9 °C 1013.8 hPa NNE 0.3 km/h 1.6 km/h 85 % 0 mm
06:01 11.3 °C 8.9 °C 1014.1 hPa Calm   1.9 km/h 85 % 0 mm
06:06 11.3 °C 8.8 °C 1013.8 hPa Calm   1.9 km/h 85 % 0 mm
06:11 11.3 °C 8.8 °C 1013.8 hPa Calm     85 % 0 mm
06:16 11.2 °C 8.8 °C 1013.8 hPa Calm     85 % 0 mm
06:21 11.2 °C 8.8 °C 1013.8 hPa Calm     85 % 0 mm
06:26 11.3 °C 9 °C 1013.8 hPa Calm     86 % 0 mm
06:31 11.3 °C 9 °C 1013.8 hPa Calm     86 % 0 mm
06:36 11.3 °C 9.2 °C 1013.8 hPa Calm     87 % 0 mm
06:41 11.4 °C 9.3 °C 1013.8 hPa Calm     87 % 0 mm
06:46 11.6 °C 9.6 °C 1013.8 hPa Calm     88 % 0 mm
06:51 11.7 °C 9.9 °C 1013.8 hPa Calm     89 % 0 mm
06:56 11.9 °C 10 °C 1013.8 hPa Calm     88 % 0 mm
07:01 12.2 °C 10.3 °C 1013.8 hPa Calm     88 % 0 mm
07:07 12.5 °C 10.6 °C 1013.8 hPa Calm     88 % 0 mm
07:12 12.8 °C 10.7 °C 1013.8 hPa Calm     87 % 0 mm
07:17 13.1 °C 10.8 °C 1013.8 hPa Calm     86 % 0 mm
07:22 13.5 °C 11 °C 1013.8 hPa Calm     85 % 0 mm
07:27 13.9 °C 11.1 °C 1013.8 hPa Calm     83 % 0 mm
07:32 14.4 °C 10.4 °C 1013.8 hPa Calm     77 % 0 mm
07:37 14.8 °C 10.4 °C 1013.8 hPa Calm     75 % 0 mm
07:42 15 °C 9.8 °C 1013.8 hPa Calm     71 % 0 mm
07:47 15.2 °C 9.6 °C 1013.8 hPa NNE 0.3 km/h 1.9 km/h 69 % 0 mm
07:52 15.4 °C 9.6 °C 1013.8 hPa Calm     68 % 0 mm
07:57 15.7 °C 10 °C 1013.8 hPa NNE 0.2 km/h 1.9 km/h 69 % 0 mm
08:02 15.9 °C 9.8 °C 1014.1 hPa SSW 3.2 km/h 6.4 km/h 67 % 0 mm
08:07 16.1 °C 10.2 °C 1013.8 hPa SW 0.6 km/h 5.6 km/h 68 % 0 mm
08:12 16.3 °C 10.1 °C 1014.1 hPa SW 1.6 km/h 5.6 km/h 67 % 0 mm
08:17 16.5 °C 9.7 °C 1014.1 hPa SW 3.5 km/h 5.6 km/h 64 % 0 mm
08:22 16.7 °C 9.8 °C 1014.1 hPa SW 1 km/h 5.6 km/h 64 % 0 mm
08:27 16.8 °C 10.2 °C 1014.1 hPa WSW 2.4 km/h 5.6 km/h 65 % 0 mm
08:30 16.9 °C 10.6 °C 1014.1 hPa West 2.9 km/h 5.6 km/h 66 % 0 mm
08:35 17.2 °C 10.6 °C 1014.1 hPa WSW 2.1 km/h 9.3 km/h 65 % 0 mm
08:40 17.3 °C 11.2 °C 1014.1 hPa NW 2.4 km/h 7.4 km/h 67 % 0 mm
08:45 17.5 °C 11.3 °C 1014.1 hPa Calm   1.9 km/h 67 % 0 mm
08:50 17.7 °C 11.4 °C 1014.1 hPa West 1.3 km/h 5.6 km/h 67 % 0 mm
08:55 17.8 °C 11.6 °C 1014.1 hPa West 2.4 km/h 5.6 km/h 67 % 0 mm
09:00 17.9 °C 11.5 °C 1014.1 hPa West 2.1 km/h 5.6 km/h 66 % 0 mm
09:05 18.1 °C 11.4 °C 1013.8 hPa NW 1.6 km/h 5.6 km/h 65 % 0 mm
09:10 18.2 °C 11 °C 1014.1 hPa NW 1 km/h 3.7 km/h 63 % 0 mm
09:11 18.2 °C 11.6 °C 1014.1 hPa NW 0.8 km/h 3.7 km/h 65 % 0 mm
09:16 18.3 °C 11.9 °C 1014.1 hPa WNW 3.2 km/h 6.4 km/h 66 % 0 mm
09:21 18.4 °C 11.7 °C 1013.8 hPa West 2.4 km/h 7.4 km/h 65 % 0 mm
09:26 18.6 °C 12.6 °C 1013.8 hPa WNW 0.5 km/h 3.7 km/h 68 % 0 mm
09:31 18.8 °C 12.9 °C 1013.8 hPa NW 3.2 km/h 5.6 km/h 69 % 0 mm
09:36 18.9 °C 13.6 °C 1013.8 hPa NNW 1.4 km/h 5.6 km/h 71 % 0 mm
09:41 19.2 °C 14.1 °C 1013.8 hPa NW 2.1 km/h 5.6 km/h 72 % 0 mm
09:46 19.5 °C 14.1 °C 1013.8 hPa NW 0.3 km/h 3.7 km/h 71 % 0 mm
09:51 19.9 °C 14.1 °C 1013.8 hPa North 2.9 km/h 5.6 km/h 69 % 0 mm
09:56 20.3 °C 13.9 °C 1013.8 hPa NW 1.9 km/h 5.6 km/h 67 % 0 mm
10:01 20.7 °C 14.4 °C 1013.8 hPa NW 3.1 km/h 5.6 km/h 67 % 0 mm
10:06 21.1 °C 14.5 °C 1013.4 hPa NNW 2.9 km/h 3.7 km/h 66 % 0 mm
10:11 21.4 °C 14.3 °C 1013.4 hPa NW 3.2 km/h 5.6 km/h 64 % 0 mm
10:16 21.8 °C 14.9 °C 1013.4 hPa North 3.2 km/h 6.4 km/h 65 % 0 mm
10:21 22.2 °C 15.3 °C 1013.4 hPa NW 3.4 km/h 7.4 km/h 65 % 0 mm
10:26 22.4 °C 14.5 °C 1013.4 hPa NW 3.4 km/h 8 km/h 61 % 0 mm
10:31 22.7 °C 14.2 °C 1013.4 hPa North 3.1 km/h 5.6 km/h 59 % 0 mm
10:36 22.9 °C 14.5 °C 1013.4 hPa NNW 2.1 km/h 13 km/h 59 % 0 mm
10:41 23.2 °C 14.9 °C 1013.1 hPa NNW 2.9 km/h 5.6 km/h 60 % 0 mm
10:46 23.3 °C 15.1 °C 1013.1 hPa NNW 0.3 km/h 1.9 km/h 60 % 0 mm
10:51 23.4 °C 14.2 °C 1013.1 hPa WNW 0.6 km/h 3.7 km/h 56 % 0 mm
10:56 23.7 °C 14.4 °C 1013.1 hPa NW 1.4 km/h 5.6 km/h 56 % 0 mm
11:01 23.8 °C 15.6 °C 1013.1 hPa Calm     60 % 0 mm
11:06 24 °C 15.5 °C 1013.1 hPa WNW 1.4 km/h 5.6 km/h 59 % 0 mm
11:11 24.1 °C 13.1 °C 1013.1 hPa West 0.6 km/h 3.7 km/h 50 % 0 mm
11:16 24.2 °C 14.3 °C 1013.1 hPa West 0.6 km/h 1.9 km/h 54 % 0 mm
11:21 24.4 °C 14.2 °C 1013.1 hPa NNW 3.7 km/h 5.6 km/h 53 % 0 mm
11:26 24.6 °C 14.4 °C 1013.1 hPa WNW 3.2 km/h 7.4 km/h 53 % 0 mm
11:27 24.7 °C 14.7 °C 1013.1 hPa North 3.7 km/h 7.4 km/h 54 % 0 mm
11:32 24.8 °C 14.6 °C 1012.8 hPa North 5 km/h 8 km/h 53 % 0 mm
11:37 24.9 °C 13.5 °C 1012.8 hPa North 6.6 km/h 8 km/h 49 % 0 mm
11:42 25.1 °C 14.5 °C 1012.8 hPa WNW 1.8 km/h 9.3 km/h 52 % 0 mm
11:47 25.2 °C 13.1 °C 1012.8 hPa NW 5.5 km/h 7.4 km/h 47 % 0 mm
11:52 25.4 °C 15.4 °C 1012.8 hPa NW 0.2 km/h 1.9 km/h 54 % 0 mm
11:57 25.5 °C 12.7 °C 1012.8 hPa WSW 5.8 km/h 7.4 km/h 45 % 0 mm
12:02 25.6 °C 13.1 °C 1012.8 hPa WSW 5.8 km/h 9.3 km/h 46 % 0 mm
12:07 25.8 °C 13.3 °C 1012.4 hPa South 2.1 km/h 5.6 km/h 46 % 0 mm
12:12 26.1 °C 13.6 °C 1012.4 hPa West 2.9 km/h 13 km/h 46 % 0 mm
12:17 26.2 °C 14.3 °C 1012.4 hPa SE 2.4 km/h 5.6 km/h 48 % 0 mm
12:22 26.2 °C 11.5 °C 1012.1 hPa ESE 1.1 km/h 3.7 km/h 40 % 0 mm
12:27 26.3 °C 13.1 °C 1012.1 hPa SSW 0.8 km/h 3.7 km/h 44 % 0 mm
12:32 26.3 °C 12.8 °C 1012.1 hPa SE 4 km/h 5.6 km/h 43 % 0 mm
12:37 26.3 °C 12 °C 1012.1 hPa SSE 2.6 km/h 7.4 km/h 41 % 0 mm
12:42 26.1 °C 12.6 °C 1011.7 hPa SSW 2.1 km/h 3.7 km/h 43 % 0 mm
12:47 26.1 °C 11.4 °C 1012.1 hPa SE 2.4 km/h 6.4 km/h 40 % 0 mm
12:52 26 °C 12.4 °C 1011.7 hPa SSW 5.8 km/h 7.4 km/h 43 % 0 mm
12:57 26 °C 12.4 °C 1011.7 hPa South 4.3 km/h 5.6 km/h 43 % 0 mm
13:03 25.7 °C 12.2 °C 1011.7 hPa SSE 2.3 km/h 11.1 km/h 43 % 0 mm
13:08 25.6 °C 13.7 °C 1011.7 hPa SW 2.7 km/h 13 km/h 48 % 0 mm
13:13 25.7 °C 13.2 °C 1011.7 hPa NW 6 km/h 11.1 km/h 46 % 0 mm
13:18 25.8 °C 12.9 °C 1011.7 hPa SW 5.1 km/h 13 km/h 45 % 0 mm
13:23 25.8 °C 12.6 °C 1011.4 hPa South 1.9 km/h 13 km/h 44 % 0 mm
13:28 25.8 °C 13 °C 1011.4 hPa SSE 3.9 km/h 11.1 km/h 45 % 0 mm
13:33 25.9 °C 13.1 °C 1011.4 hPa South 1.8 km/h 5.6 km/h 45 % 0 mm
13:38 25.8 °C 11.2 °C 1011.4 hPa SSW 4.5 km/h 14.8 km/h 40 % 0 mm
13:43 25.5 °C 11.3 °C 1011.1 hPa SSE 2.9 km/h 11.1 km/h 41 % 0 mm
13:48 25.4 °C 11.6 °C 1011.1 hPa SW 2.1 km/h 8 km/h 42 % 0 mm
13:53 25.3 °C 11.8 °C 1011.1 hPa South 5.6 km/h 13 km/h 43 % 0 mm
13:58 25.3 °C 11.8 °C 1011.1 hPa South 2.7 km/h 5.6 km/h 43 % 0 mm
14:03 25.1 °C 12 °C 1011.1 hPa South 4 km/h 7.4 km/h 44 % 0 mm
14:08 25.1 °C 12.3 °C 1011.1 hPa WSW 2.9 km/h 9.3 km/h 45 % 0 mm
14:13 25.2 °C 12.7 °C 1010.7 hPa SE 3.7 km/h 9.3 km/h 46 % 0 mm
14:18 25.3 °C 12.5 °C 1011.1 hPa South 10.6 km/h 18.5 km/h 45 % 0 mm
14:23 25.3 °C 10.7 °C 1010.7 hPa South 9 km/h 18.5 km/h 40 % 0 mm
14:33 24.9 °C 11.8 °C 1010.7 hPa SSW 4.2 km/h 9.3 km/h 44 % 0 mm
14:38 24.9 °C 12.1 °C 1010.7 hPa ESE 4 km/h 14.5 km/h 45 % 0 mm
14:43 24.7 °C 11.7 °C 1010.7 hPa SSE 5.3 km/h 9.3 km/h 44 % 0 mm
14:49 24.8 °C 12.1 °C 1011.1 hPa South 3.7 km/h 9.3 km/h 45 % 0 mm
14:54 24.6 °C 10.8 °C 1011.1 hPa SSW 5.3 km/h 9.7 km/h 42 % 0 mm
14:59 24.3 °C 10.6 °C 1010.7 hPa SSE 3.5 km/h 11.3 km/h 42 % 0 mm
15:04 24.2 °C 10.8 °C 1010.7 hPa SSE 8.5 km/h 22.5 km/h 43 % 0 mm
15:09 24.1 °C 10.7 °C 1010.7 hPa South 6.3 km/h 13 km/h 43 % 0 mm
15:14 24.1 °C 10.7 °C 1010.7 hPa SSW 7.1 km/h 13 km/h 43 % 0 mm
15:19 23.9 °C 10.6 °C 1010.4 hPa SSE 7.9 km/h 18.5 km/h 43 % 0 mm
15:24 23.7 °C 10.3 °C 1010.4 hPa SSE 4.7 km/h 7.4 km/h 43 % 0 mm
15:29 23.6 °C 10.9 °C 1010.4 hPa South 4.3 km/h 16.7 km/h 45 % 0 mm
15:34 23.3 °C 11.1 °C 1010.4 hPa South 3.7 km/h 9.3 km/h 46 % 0 mm
15:39 23.2 °C 10.9 °C 1010.7 hPa SSW 6.6 km/h 18.5 km/h 46 % 0 mm
15:44 22.8 °C 10.6 °C 1010.7 hPa SSW 7.9 km/h 13 km/h 46 % 0 mm
15:49 22.5 °C 10.3 °C 1011.4 hPa WSW 5.6 km/h 9.7 km/h 46 % 0 mm
15:54 22.2 °C 11.9 °C 1011.4 hPa West 3.9 km/h 11.1 km/h 52 % 0 mm
15:59 21.8 °C 12.9 °C 1011.1 hPa Calm   7.4 km/h 57 % 0 mm
16:04 21.7 °C 11.4 °C 1011.1 hPa SSW 6.3 km/h 13 km/h 52 % 0 mm
16:09 21.5 °C 10 °C 1011.1 hPa SE 10.5 km/h 18.5 km/h 48 % 0 mm
16:14 21.3 °C 10.1 °C 1011.1 hPa SSE 3.1 km/h 7.4 km/h 49 % 0 mm
16:18 21.2 °C 10.3 °C 1011.1 hPa SSW 2.1 km/h 6.4 km/h 50 % 0 mm
16:23 21.2 °C 10.7 °C 1011.1 hPa SSW 2.4 km/h 4.8 km/h 51 % 0 mm
16:28 21.2 °C 10.9 °C 1011.1 hPa South 3.2 km/h 7.4 km/h 52 % 0 mm
16:33 21.2 °C 10.9 °C 1010.7 hPa West 4.5 km/h 11.1 km/h 52 % 0 mm
16:38 21.1 °C 11.1 °C 1010.7 hPa SSW 1.8 km/h 6.4 km/h 53 % 0 mm
16:43 20.9 °C 11.2 °C 1010.7 hPa ESE 4.8 km/h 9.3 km/h 54 % 0 mm
16:48 20.7 °C 11 °C 1010.4 hPa SSW 2.1 km/h 9.3 km/h 54 % 0 mm
16:53 20.5 °C 11.2 °C 1010.4 hPa SSE 2.1 km/h 13 km/h 55 % 0 mm
16:58 20.3 °C 11.8 °C 1010.4 hPa South 5 km/h 9.3 km/h 58 % 0 mm
17:03 20.3 °C 11.8 °C 1010.4 hPa South 1.1 km/h 7.4 km/h 58 % 0 mm
17:08 20.4 °C 11.4 °C 1010.4 hPa SSW 3.5 km/h 11.1 km/h 56 % 0 mm
17:13 20.6 °C 11.2 °C 1010.4 hPa South 4.5 km/h 7.4 km/h 55 % 0 mm
17:19 20.8 °C 11.4 °C 1010.4 hPa SSW 2.7 km/h 9.3 km/h 55 % 0 mm
17:24 20.9 °C 11.5 °C 1010.4 hPa WSW 1.9 km/h 3.7 km/h 55 % 0 mm
17:29 21 °C 11.3 °C 1010 hPa SSW 1.8 km/h 5.6 km/h 54 % 0 mm
17:34 21.1 °C 11.4 °C 1010 hPa East 0.6 km/h 5.6 km/h 54 % 0 mm
17:39 21.2 °C 11.5 °C 1010.4 hPa SSE 0.5 km/h 9.3 km/h 54 % 0 mm
17:44 21.2 °C 11.3 °C 1010 hPa SSE 1.6 km/h 5.6 km/h 53 % 0 mm
17:49 21.3 °C 11 °C 1010 hPa SE 1.1 km/h 5.6 km/h 52 % 0 mm
17:54 21.3 °C 11.3 °C 1010 hPa SE 1.4 km/h 6.4 km/h 53 % 0 mm
17:59 21.4 °C 11.4 °C 1010.4 hPa WSW 2.4 km/h 3.2 km/h 53 % 0 mm
18:04 21.4 °C 11.2 °C 1010 hPa SW 3.7 km/h 6.4 km/h 52 % 0 mm
18:09 21.5 °C 10.9 °C 1010 hPa WSW 2.6 km/h 11.1 km/h 51 % 0 mm
18:15 21.6 °C 11.3 °C 1010 hPa WSW 1.6 km/h 3.7 km/h 52 % 0 mm
18:20 21.7 °C 11.4 °C 1010.4 hPa WSW 4.8 km/h 6.4 km/h 52 % 0 mm
18:25 21.8 °C 10.9 °C 1010.4 hPa WSW 3.4 km/h 7.4 km/h 50 % 0 mm
18:30 21.8 °C 10.9 °C 1010.4 hPa SW 2.1 km/h 7.4 km/h 50 % 0 mm
18:35 21.9 °C 11 °C 1010.4 hPa WNW 2.3 km/h 9.3 km/h 50 % 0 mm
18:40 21.9 °C 11.6 °C 1010.4 hPa North 2.3 km/h 8 km/h 52 % 0 mm
18:45 21.9 °C 11.6 °C 1010.7 hPa NW 2.6 km/h 5.6 km/h 52 % 0 mm
18:50 21.8 °C 10.9 °C 1010.7 hPa NNW 3.4 km/h 9.3 km/h 50 % 0 mm
18:55 21.8 °C 11.2 °C 1010.7 hPa WNW 3.9 km/h 9.3 km/h 51 % 0 mm
19:00 21.7 °C 11.7 °C 1010.7 hPa WNW 1.8 km/h 8 km/h 53 % 0 mm
19:05 21.6 °C 11.6 °C 1010.7 hPa NW 2.7 km/h 7.4 km/h 53 % 0 mm
19:10 21.4 °C 11.1 °C 1010.7 hPa NNE 5.6 km/h 16.7 km/h 52 % 0 mm
19:15 21.2 °C 10.9 °C 1010.7 hPa WNW 3.4 km/h 9.3 km/h 52 % 0 mm
19:20 21 °C 11.1 °C 1010.7 hPa NNE 1.3 km/h 4.8 km/h 53 % 0 mm
19:25 20.8 °C 11.2 °C 1011.1 hPa NW 3.2 km/h 9.3 km/h 54 % 0 mm
19:30 20.7 °C 11.1 °C 1011.1 hPa NNW 1.3 km/h 5.6 km/h 54 % 0 mm
19:35 20.6 °C 10.9 °C 1011.1 hPa North 5.1 km/h 13 km/h 54 % 0 mm
19:40 20.3 °C 10.7 °C 1011.1 hPa NW 2.6 km/h 5.6 km/h 54 % 0 mm
19:45 20.2 °C 10.6 °C 1011.1 hPa North 2.6 km/h 6.4 km/h 54 % 0 mm
19:50 20.1 °C 10.4 °C 1011.4 hPa NW 3.7 km/h 3.7 km/h 54 % 0 mm
19:56 19.8 °C 9.7 °C 1011.4 hPa North 4 km/h 9.3 km/h 52 % 0 mm
20:01 19.7 °C 10.4 °C 1011.7 hPa North 0.3 km/h 1.9 km/h 55 % 0 mm
20:06 19.6 °C 10.3 °C 1011.7 hPa NNW 1.6 km/h 8 km/h 55 % 0 mm
20:11 19.3 °C 10.3 °C 1011.7 hPa NW 4.8 km/h 11.1 km/h 56 % 0 mm
20:16 19.2 °C 9.9 °C 1011.7 hPa NW 1.6 km/h 11.3 km/h 55 % 0 mm
20:21 19.1 °C 9.3 °C 1011.7 hPa NNW 1.6 km/h 11.3 km/h 53 % 0 mm
20:26 18.9 °C 9.4 °C 1011.7 hPa NW 3.2 km/h 9.7 km/h 54 % 0 mm
20:31 18.8 °C 9.6 °C 1012.1 hPa NW 1.6 km/h 9.7 km/h 55 % 0 mm
20:36 18.7 °C 9.5 °C 1012.1 hPa North 5.8 km/h 6.4 km/h 55 % 0 mm
20:41 18.6 °C 9.7 °C 1012.1 hPa Calm   8 km/h 56 % 0 mm
20:46 18.4 °C 9.5 °C 1012.1 hPa NW 4.8 km/h 16.1 km/h 56 % 0 mm
20:51 18.3 °C 9.1 °C 1012.1 hPa NNW 1.6 km/h 12.9 km/h 55 % 0 mm
20:56 18.2 °C 9.1 °C 1012.1 hPa NNW 1.6 km/h 8 km/h 55 % 0 mm
21:01 18.2 °C 9 °C 1012.4 hPa West 1.8 km/h 5.6 km/h 55 % 0 mm
21:06 18.1 °C 9.2 °C 1012.4 hPa NE 1.6 km/h 6.4 km/h 56 % 0 mm
21:11 18.1 °C 8.9 °C 1012.4 hPa NW 1 km/h 6.4 km/h 55 % 0 mm
21:16 18 °C 8.8 °C 1012.4 hPa Calm   1.9 km/h 55 % 0 mm
21:21 17.9 °C 9.1 °C 1012.4 hPa NW 1.3 km/h 3.7 km/h 56 % 0 mm
21:26 17.9 °C 9.2 °C 1012.8 hPa NNW 0.5 km/h 1.9 km/h 57 % 0 mm
21:31 17.8 °C 9.2 °C 1012.8 hPa NNW 0.3 km/h 1.9 km/h 57 % 0 mm
21:36 17.7 °C 9.3 °C 1012.8 hPa Calm     58 % 0 mm
21:41 17.7 °C 9.6 °C 1012.8 hPa Calm     59 % 0 mm
21:46 17.6 °C 9.7 °C 1013.1 hPa NNW 0.2 km/h 1.6 km/h 60 % 0 mm
21:51 17.4 °C 9.8 °C 1013.1 hPa Calm     61 % 0 mm
21:56 17.3 °C 10 °C 1013.1 hPa NNW 0.2 km/h 1.9 km/h 62 % 0 mm
22:01 17.2 °C 9.9 °C 1013.1 hPa Calm   1.9 km/h 62 % 0 mm
22:06 17.1 °C 9.9 °C 1013.1 hPa Calm     63 % 0 mm
22:11 16.9 °C 10.1 °C 1013.1 hPa North 1 km/h 3.2 km/h 64 % 0 mm
22:16 16.8 °C 9.9 °C 1013.1 hPa North 0.8 km/h 3.7 km/h 64 % 0 mm
22:21 16.7 °C 10.1 °C 1013.1 hPa Calm   1.9 km/h 65 % 0 mm
22:26 16.6 °C 9.5 °C 1013.1 hPa Calm   3.7 km/h 63 % 0 mm
22:31 16.5 °C 9.4 °C 1013.4 hPa Calm     63 % 0 mm
22:36 16.4 °C 9.3 °C 1013.4 hPa Calm     63 % 0 mm
22:41 16.3 °C 9.3 °C 1013.4 hPa Calm   1.9 km/h 63 % 0 mm
22:46 16.3 °C 9.4 °C 1013.4 hPa NNW 0.6 km/h 1.9 km/h 64 % 0 mm
22:51 16.2 °C 9.4 °C 1013.4 hPa Calm   4.8 km/h 64 % 0 mm
22:56 16.2 °C 9.6 °C 1013.4 hPa WNW 1.6 km/h 4.8 km/h 65 % 0 mm
23:01 16.1 °C 9.5 °C 1013.4 hPa West 2.7 km/h 5.6 km/h 65 % 0 mm
23:06 16.1 °C 9.4 °C 1013.4 hPa Calm   6.4 km/h 65 % 0 mm
23:11 16 °C 9.6 °C 1013.4 hPa WNW 3.2 km/h 9.7 km/h 66 % 0 mm
23:16 15.9 °C 9.3 °C 1013.4 hPa WNW 1.6 km/h 4.8 km/h 65 % 0 mm
23:21 15.8 °C 9.1 °C 1013.4 hPa WNW 1.6 km/h 8 km/h 64 % 0 mm
23:26 15.8 °C 8.8 °C 1013.4 hPa WNW 1.6 km/h 6.4 km/h 63 % 0 mm
23:31 15.8 °C 9.2 °C 1013.4 hPa Calm   11.3 km/h 65 % 0 mm
23:36 15.8 °C 9.4 °C 1013.4 hPa WNW 3.2 km/h 8 km/h 66 % 0 mm
23:41 15.8 °C 9.7 °C 1013.8 hPa WNW 1.6 km/h 6.4 km/h 67 % 0 mm
23:46 15.8 °C 9.7 °C 1013.4 hPa Calm   4.8 km/h 67 % 0 mm
23:51 15.7 °C 9.8 °C 1013.4 hPa Calm   3.2 km/h 68 % 0 mm
23:56 15.7 °C 9.3 °C 1013.4 hPa NNW 3.2 km/h 8 km/h 66 % 0 mm
Crab Meadow Weather
Compliments of Weather Underground - 3 mb

Script developed by  Jim McMurry - jmcmurry@mwt.net Adapted for the template by  Wim van der Kuil - Leuven-Template.eu

Recycling: The average American uses seven trees a year in paper, wood, and other products made from trees. This amounts to about 2,000,000,000 trees per year!